Meteorología y climatología de Navarra
Datos de la estación - Meteo Navarra

Estación de Aoiz GN

Altitud 534 m.


Datos desde el 30/06/2020 hasta el 01/07/2020 en horario solar
Los datos son PROVISIONALES

Anterior Página 1 de 1 Siguiente Descargar: Formato para Excel 2000 o superior   Formato csv   Formato para OpenOffice Calc
Fecha Temperatura Humedad relativa Radiación global Insolación Precipitación Vel. viento 10 m Vel. viento 10 m Dir. viento 10 m
ºC % W/m² s l/m² m/s km/h º
30/06/2020 0:00 14.2 89 0.0 0 0.0 0.3 1.0 38
30/06/2020 0:10 14.3 88 0.0 0 0.0 0.8 3.0 293
30/06/2020 0:20 14.5 88 0.0 0 0.0 1.5 5.3 286
30/06/2020 0:30 14.2 88 0.0 0 0.0 0.1 0.4 8
30/06/2020 0:40 14.0 90 0.0 0 0.0 0.0 0.0 33
30/06/2020 0:50 14.0 90 0.0 0 0.0 0.1 0.3 33
30/06/2020 1:00 13.7 90 0.0 0 0.0 0.0 0.1 33
30/06/2020 1:10 13.6 91 0.0 0 0.0 0.4 1.5 45
30/06/2020 1:20 13.4 91 0.0 0 0.0 0.4 1.3 17
30/06/2020 1:30 13.2 93 0.0 0 0.0 1.0 3.6 42
30/06/2020 1:40 13.7 92 0.0 0 0.0 0.7 2.4 37
30/06/2020 1:50 13.4 91 0.0 0 0.0 0.0 0.0 0
30/06/2020 2:00 13.2 92 0.0 0 0.0 0.0 0.0 28
30/06/2020 2:10 13.3 93 0.0 0 0.0 0.3 1.1 28
30/06/2020 2:20 13.2 91 0.0 0 0.0 0.3 1.1 28
30/06/2020 2:30 12.8 93 0.0 0 0.0 0.2 0.9 39
30/06/2020 2:40 12.8 93 0.0 0 0.0 0.0 0.0 41
30/06/2020 2:50 12.7 94 0.0 0 0.0 0.1 0.4 40
30/06/2020 3:00 12.9 93 0.0 0 0.0 0.2 0.6 34
30/06/2020 3:10 13.0 94 0.0 0 0.0 0.0 0.0 50
30/06/2020 3:20 13.2 93 0.0 0 0.0 0.1 0.3 9
30/06/2020 3:30 13.3 92 0.0 0 0.0 0.0 0.1 9
30/06/2020 3:40 13.1 91 0.0 0 0.0 0.1 0.3 11
30/06/2020 3:50 12.9 93 0.0 0 0.0 0.5 1.9 95
30/06/2020 4:00 12.5 93 0.0 0 0.0 0.1 0.4 99
30/06/2020 4:10 12.2 93 0.0 0 0.0 1.0 3.7 253
30/06/2020 4:20 12.1 95 0.0 0 0.0 1.1 3.9 283
30/06/2020 4:30 12.2 94 0.0 0 0.0 0.5 1.7 30
30/06/2020 4:40 12.1 95 0.0 0 0.0 0.4 1.3 104
30/06/2020 4:50 12.1 95 1.9 0 0.0 0.2 0.7 86
30/06/2020 5:00 12.2 95 16.8 0 0.0 0.8 2.8 344
30/06/2020 5:10 12.2 95 22.9 0 0.0 0.3 1.2 325
30/06/2020 5:20 12.4 95 30.0 0 0.0 0.5 1.9 48
30/06/2020 5:30 12.9 95 36.0 0 0.0 0.7 2.5 341
30/06/2020 5:40 13.0 92 104.5 486 0.0 0.1 0.2 275
30/06/2020 5:50 13.5 89 138.4 600 0.0 0.2 0.7 223
30/06/2020 6:00 13.8 87 154.0 570 0.0 0.5 1.8 216
30/06/2020 6:10 14.0 87 201.5 600 0.0 0.6 2.3 248
30/06/2020 6:20 14.5 85 166.0 266 0.0 0.2 0.8 183
30/06/2020 6:30 14.4 86 112.1 0 0.0 0.6 2.0 233
30/06/2020 6:40 14.4 86 184.9 282 0.0 0.4 1.4 238
30/06/2020 6:50 15.1 84 308.4 584 0.0 0.5 1.7 280
30/06/2020 7:00 15.8 81 190.7 22 0.0 0.8 2.8 111
30/06/2020 7:10 15.9 82 223.0 176 0.0 0.8 2.7 107
30/06/2020 7:20 16.1 80 235.2 116 0.0 0.2 0.9 146
30/06/2020 7:30 16.2 79 425.8 490 0.0 0.2 0.8 220
30/06/2020 7:40 17.1 75 445.0 552 0.0 0.7 2.4 220
30/06/2020 7:50 17.5 74 374.5 600 0.0 1.1 3.8 247
30/06/2020 8:00 18.1 72 374.9 600 0.0 0.3 1.0 228
30/06/2020 8:10 18.8 70 432.1 600 0.0 0.7 2.7 133
30/06/2020 8:20 19.6 66 603.4 600 0.0 0.3 1.2 182
30/06/2020 8:30 20.0 65 638.6 600 0.0 1.3 4.7 120
30/06/2020 8:40 20.6 63 650.2 600 0.0 1.2 4.3 171
30/06/2020 8:50 20.1 65 673.8 600 0.0 1.0 3.5 224
30/06/2020 9:00 21.5 62 700.2 600 0.0 1.0 3.4 127
30/06/2020 9:10 22.2 60 724.9 600 0.0 0.8 2.9 348
30/06/2020 9:20 22.4 61 788.7 600 0.0 1.0 3.7 141
30/06/2020 9:30 23.1 61 590.8 600 0.0 1.4 5.0 133
30/06/2020 9:40 23.3 60 546.5 600 0.0 1.1 3.8 149
30/06/2020 9:50 23.0 61 595.6 600 0.0 1.0 3.5 186
30/06/2020 10:00 23.7 61 866.0 600 0.0 1.3 4.7 183
30/06/2020 10:10 23.8 61 829.0 578 0.0 1.7 6.1 204
30/06/2020 10:20 24.5 61 746.0 514 0.0 0.7 2.6 322
30/06/2020 10:30 25.7 58 885.0 600 0.0 1.9 6.7 121
30/06/2020 10:40 25.5 59 883.0 600 0.0 2.4 8.8 173
30/06/2020 10:50 26.4 57 904.0 600 0.0 3.3 11.8 118
30/06/2020 11:00 26.7 56 923.0 600 0.0 3.3 11.8 108
30/06/2020 11:10 27.1 55 932.0 600 0.0 2.9 10.4 112
30/06/2020 11:20 27.7 52 939.0 600 0.0 2.6 9.3 110
30/06/2020 11:30 27.2 53 946.0 600 0.0 2.3 8.1 119
30/06/2020 11:40 27.6 51 950.0 600 0.0 2.5 9.1 219
30/06/2020 11:50 27.8 51 955.0 600 0.0 2.0 7.2 191
30/06/2020 12:00 28.7 49 958.0 600 0.0 1.7 6.0 135
30/06/2020 12:10 28.2 50 941.0 600 0.0 1.8 6.4 200
30/06/2020 12:20 28.5 50 956.0 600 0.0 1.8 6.4 183
30/06/2020 12:30 29.2 49 961.0 600 0.0 1.5 5.4 135
30/06/2020 12:40 28.7 49 959.0 600 0.0 1.9 6.8 175
30/06/2020 12:50 29.4 48 961.0 600 0.0 2.4 8.7 199
30/06/2020 13:00 29.2 48 966.0 596 0.0 1.0 3.6 208
30/06/2020 13:10 29.1 48 759.2 460 0.0 1.0 3.7 147
30/06/2020 13:20 29.7 47 951.0 600 0.0 2.5 9.0 204
30/06/2020 13:30 29.9 46 953.0 600 0.0 2.3 8.4 253
30/06/2020 13:40 29.9 46 956.0 600 0.0 2.3 8.1 218
30/06/2020 13:50 30.3 45 909.0 592 0.0 2.9 10.4 246
30/06/2020 14:00 30.1 45 442.5 186 0.0 1.3 4.7 298
30/06/2020 14:10 29.3 47 296.8 80 0.0 2.1 7.7 184
30/06/2020 14:20 29.9 46 779.8 508 0.0 0.9 3.1 153
30/06/2020 14:30 30.8 43 658.8 416 0.0 1.8 6.3 221
30/06/2020 14:40 30.7 42 785.6 584 0.0 2.4 8.6 228
30/06/2020 14:50 31.6 41 599.0 398 0.0 1.6 5.8 255
30/06/2020 15:00 30.8 42 448.6 266 0.0 2.1 7.6 320
30/06/2020 15:10 31.5 41 762.9 600 0.0 1.5 5.4 170
30/06/2020 15:20 31.6 41 729.9 600 0.0 2.6 9.2 238
30/06/2020 15:30 31.5 40 715.5 600 0.0 2.6 9.2 160
30/06/2020 15:40 31.7 40 531.6 488 0.0 1.1 4.0 178
30/06/2020 15:50 31.7 40 562.7 600 0.0 1.1 3.9 243
30/06/2020 16:00 31.8 38 620.3 600 0.0 2.0 7.1 221
30/06/2020 16:10 32.0 37 498.8 536 0.0 1.8 6.6 210
30/06/2020 16:20 31.5 37 300.3 94 0.0 2.7 9.8 224
30/06/2020 16:30 31.1 36 264.8 118 0.0 1.9 6.9 228
30/06/2020 16:40 31.6 36 594.1 566 0.0 1.9 6.7 212
30/06/2020 16:50 31.7 36 331.2 210 0.0 1.4 4.9 204
30/06/2020 17:00 31.2 37 192.2 0 0.0 1.7 6.2 208
30/06/2020 17:10 31.1 37 251.7 368 0.0 1.9 6.7 185
30/06/2020 17:20 31.1 39 234.1 226 0.0 2.3 8.4 204
30/06/2020 17:30 30.9 40 223.8 208 0.0 1.5 5.3 209
30/06/2020 17:40 30.9 41 142.7 0 0.0 1.6 5.9 210
30/06/2020 17:50 30.5 43 114.3 0 0.0 1.7 6.3 185
30/06/2020 18:00 30.2 45 64.4 0 0.0 2.6 9.4 199
30/06/2020 18:10 29.7 47 37.8 0 0.0 3.1 11.1 215
30/06/2020 18:20 29.8 47 35.2 0 0.0 2.9 10.3 249
30/06/2020 18:30 29.5 48 72.9 0 0.0 1.3 4.7 277
30/06/2020 18:40 29.2 49 50.7 0 0.0 0.7 2.6 336
30/06/2020 18:50 27.8 58 59.8 32 0.0 2.3 8.4 350
30/06/2020 19:00 27.0 62 56.4 136 0.0 2.3 8.4 10
30/06/2020 19:10 26.3 65 28.3 0 0.0 2.1 7.5 353
30/06/2020 19:20 25.9 67 19.5 0 0.0 2.6 9.3 347
30/06/2020 19:30 25.5 69 6.4 0 0.0 2.2 8.1 352
30/06/2020 19:40 25.1 70 0.0 0 0.0 2.4 8.8 344
30/06/2020 19:50 25.1 70 0.0 0 0.0 1.8 6.5 334
30/06/2020 20:00 24.8 72 0.0 0 0.0 3.0 10.9 11
30/06/2020 20:10 24.3 74 0.0 0 0.0 4.2 15.2 12
30/06/2020 20:20 24.3 74 0.0 0 0.0 5.1 18.4 2
30/06/2020 20:30 23.9 74 0.0 0 0.0 6.0 21.5 2
30/06/2020 20:40 23.5 78 0.0 0 0.0 4.3 15.4 357
30/06/2020 20:50 23.4 78 0.0 0 0.0 4.7 16.8 8
30/06/2020 21:00 23.3 77 0.0 0 0.0 3.7 13.2 348
30/06/2020 21:10 23.2 77 0.0 0 0.0 4.4 15.7 1
30/06/2020 21:20 23.3 76 0.0 0 0.0 2.2 8.0 7
30/06/2020 21:30 23.5 76 0.0 0 0.0 2.2 7.7 230
30/06/2020 21:40 23.1 78 0.0 0 0.0 0.9 3.2 234
30/06/2020 21:50 22.6 80 0.0 0 0.0 1.5 5.5 62
30/06/2020 22:00 22.3 81 0.0 0 0.0 2.5 9.0 21
30/06/2020 22:10 22.6 79 0.0 0 0.0 2.9 10.3 5
30/06/2020 22:20 22.5 80 0.0 0 0.0 2.9 10.5 3
30/06/2020 22:30 22.5 80 0.0 0 0.0 4.0 14.5 4
30/06/2020 22:40 22.4 80 0.0 0 0.0 4.0 14.5 3
30/06/2020 22:50 22.1 81 0.0 0 0.0 5.2 18.6 9
30/06/2020 23:00 22.0 81 0.0 0 0.0 4.0 14.2 4
30/06/2020 23:10 21.9 81 0.0 0 0.0 4.4 15.9 356
30/06/2020 23:20 21.8 81 0.0 0 0.0 3.5 12.7 346
30/06/2020 23:30 21.9 80 0.0 0 0.0 1.1 3.8 193
30/06/2020 23:40 21.7 80 0.0 0 0.0 0.9 3.1 345
30/06/2020 23:50 21.4 82 0.0 0 0.0 2.8 10.1 13
Anterior Página 1 de 1 Siguiente

NOTA: Tipo de datos según el color:
   - Valores diarios o 10 minutos correctos
   - Valores diarios calculados a partir de un número de datos 10 minutos menor que 144 y mayor que 120, o de un número de datos semihorarios menor que 48 y mayor que 40 (caso de las estaciones de INTIA y del Ministerio)
   - Valores diez minutos estimados


Contacto        Enlaces        Aviso legal